createdAt,value
2022-12-14T00:00:02.308Z,99597.31
2022-12-14T00:02:42.478Z,99591.31
2022-12-14T00:05:12.271Z,99590.47
2022-12-14T00:07:42.113Z,99582.72
2022-12-14T00:10:12.467Z,99584.44
2022-12-14T00:12:44.763Z,99581.88
2022-12-14T00:15:14.371Z,99575.84
2022-12-14T00:17:44.271Z,99577.56
2022-12-14T00:20:14.389Z,99574.16
2022-12-14T00:22:44.019Z,99566.41
2022-12-14T00:25:13.781Z,99565.56
2022-12-14T00:27:47.889Z,99559.53
2022-12-14T00:30:19.187Z,99549.25
2022-12-14T00:32:49.365Z,99554.38
2022-12-14T00:35:20.495Z,99555.25
2022-12-14T00:37:50.065Z,99556.94
2022-12-14T00:40:19.915Z,99558.69
2022-12-14T00:42:52.231Z,99556.09
2022-12-14T00:45:21.957Z,99554.38
2022-12-14T00:47:51.530Z,99549.25
2022-12-14T00:50:21.105Z,99550.94
2022-12-14T00:52:50.681Z,99541.53
2022-12-14T00:55:20.291Z,99539.81
2022-12-14T00:57:52.525Z,99540.66
2022-12-14T01:00:22.307Z,99530.38
2022-12-14T01:02:51.836Z,99520.06
2022-12-14T01:05:21.666Z,99526.06
2022-12-14T01:07:51.313Z,99514.03
2022-12-14T01:10:20.881Z,99509.75
2022-12-14T01:12:53.054Z,99511.47
2022-12-14T01:15:22.706Z,99508.03
2022-12-14T01:17:53.815Z,99502.88
2022-12-14T01:20:23.510Z,99505.47
2022-12-14T01:22:56.774Z,99505.47
2022-12-14T01:25:26.529Z,99504.59
2022-12-14T01:27:58.746Z,99501.19
2022-12-14T01:30:28.426Z,99503.75
2022-12-14T01:32:58.007Z,99499.44
2022-12-14T01:35:27.625Z,99493.44
2022-12-14T01:37:58.570Z,99489.16
2022-12-14T01:40:28.239Z,99494.31
2022-12-14T01:43:00.375Z,99491.75
2022-12-14T01:45:30.234Z,99489.16
2022-12-14T01:48:01.651Z,99486.59
2022-12-14T01:50:33.650Z,99494.31
2022-12-14T01:53:05.218Z,99490.91
2022-12-14T01:55:36.595Z,99492.59
2022-12-14T01:58:10.959Z,99491.75
2022-12-14T02:00:41.205Z,99496.03
2022-12-14T02:03:13.456Z,99485.75
2022-12-14T02:05:45.904Z,99482.31
2022-12-14T02:08:16.132Z,99476.31
2022-12-14T02:10:47.111Z,99470.31
2022-12-14T02:13:22.458Z,99471.19
2022-12-14T02:15:52.218Z,99460.00
2022-12-14T02:18:24.050Z,99462.59
2022-12-14T02:21:10.569Z,99459.16
2022-12-14T02:24:06.231Z,99451.47
2022-12-14T02:26:56.701Z,99448.03
2022-12-14T02:30:07.753Z,99447.16
2022-12-14T02:33:06.701Z,99452.31
2022-12-14T02:35:41.823Z,99448.03
2022-12-14T02:38:20.761Z,99436.88
2022-12-14T02:41:00.800Z,99423.16
2022-12-14T02:43:34.113Z,99418.03
2022-12-14T02:46:09.347Z,99421.47
2022-12-14T02:48:44.072Z,99415.44
2022-12-14T02:51:30.314Z,99403.44
2022-12-14T02:54:03.788Z,99396.56
2022-12-14T02:56:38.499Z,99404.31
2022-12-14T02:59:10.786Z,99401.72
2022-12-14T03:01:41.874Z,99402.59
2022-12-14T03:04:19.633Z,99400.88
2022-12-14T03:06:57.961Z,99404.31
2022-12-14T03:09:28.751Z,99388.88
2022-12-14T03:11:59.931Z,99382.00
2022-12-14T03:14:32.654Z,99378.59
2022-12-14T03:17:06.341Z,99388.03
2022-12-14T03:19:40.881Z,99392.31
2022-12-14T03:22:12.485Z,99379.47
2022-12-14T03:24:44.570Z,99376.88
2022-12-14T03:27:16.961Z,99375.19
2022-12-14T03:29:49.987Z,99359.72
2022-12-14T03:32:21.600Z,99364.84
2022-12-14T03:34:56.978Z,99361.44
2022-12-14T03:37:31.917Z,99353.72
2022-12-14T03:40:01.640Z,99355.44
2022-12-14T03:42:36.200Z,99358.88
2022-12-14T03:45:07.992Z,99352.88
2022-12-14T03:47:51.982Z,99353.75
2022-12-14T03:50:27.310Z,99351.16
2022-12-14T03:53:01.401Z,99355.44
2022-12-14T03:55:36.270Z,99352.88
2022-12-14T03:58:19.144Z,99354.56
2022-12-14T04:00:53.287Z,99357.16
2022-12-14T04:03:29.920Z,99350.31
2022-12-14T04:06:05.742Z,99354.59
2022-12-14T04:08:41.773Z,99352.88
2022-12-14T04:11:26.233Z,99356.28
2022-12-14T04:14:13.441Z,99358.88
2022-12-14T04:16:56.820Z,99354.56
2022-12-14T04:19:30.170Z,99356.28
2022-12-14T04:22:05.621Z,99364.88
2022-12-14T04:24:52.959Z,99352.88
2022-12-14T04:27:28.663Z,99351.16
2022-12-14T04:29:56.474Z,99345.16
2022-12-14T04:32:29.796Z,99346.88
2022-12-14T04:35:03.428Z,99348.56
2022-12-14T04:37:38.841Z,99345.13
2022-12-14T04:40:11.287Z,99352.00
2022-12-14T04:42:46.961Z,99342.56
2022-12-14T04:45:20.684Z,99341.72
2022-12-14T04:47:57.447Z,99332.28
2022-12-14T04:50:30.116Z,99333.16
2022-12-14T04:53:06.734Z,99334.84
2022-12-14T04:55:38.485Z,99339.13
2022-12-14T04:58:12.901Z,99326.25
2022-12-14T05:00:51.863Z,99327.09
2022-12-14T05:03:27.287Z,99323.69
2022-12-14T05:06:07.930Z,99321.97
2022-12-14T05:08:59.170Z,99317.66
2022-12-14T05:14:25.209Z,99314.25
2022-12-14T05:16:54.974Z,99309.97
2022-12-14T05:19:26.741Z,99313.41
2022-12-14T05:21:57.059Z,99310.81
2022-12-14T05:24:29.269Z,99304.81
2022-12-14T05:26:58.926Z,99297.09
2022-12-14T05:29:28.503Z,99300.53
2022-12-14T05:31:58.180Z,99300.50
2022-12-14T05:34:27.787Z,99291.06
2022-12-14T05:36:58.149Z,99284.22
2022-12-14T05:39:30.482Z,99289.34
2022-12-14T05:42:00.142Z,99285.06
2022-12-14T05:44:30.123Z,99267.06
2022-12-14T05:46:59.751Z,99259.31
2022-12-14T05:49:29.331Z,99260.19
2022-12-14T05:51:58.894Z,99261.03
2022-12-14T05:54:31.188Z,99256.75
2022-12-14T05:57:01.069Z,99259.28
2022-12-14T05:59:30.981Z,99262.75
2022-12-14T06:02:00.816Z,99260.16
2022-12-14T06:04:31.015Z,99245.56
2022-12-14T06:07:00.700Z,99252.44
2022-12-14T06:09:32.875Z,99245.56
2022-12-14T06:12:02.516Z,99249.00
2022-12-14T06:14:32.093Z,99251.56
2022-12-14T06:17:01.695Z,99246.41
2022-12-14T06:19:31.266Z,99241.28
2022-12-14T06:22:01.325Z,99238.69
2022-12-14T06:24:33.701Z,99236.13
2022-12-14T06:27:03.462Z,99231.81
2022-12-14T06:29:33.034Z,99234.38
2022-12-14T06:32:04.141Z,99229.22
2022-12-14T06:34:38.463Z,99235.25
2022-12-14T06:37:08.972Z,99242.09
2022-12-14T06:39:41.313Z,99237.78
2022-12-14T06:42:11.504Z,99242.06
2022-12-14T06:44:41.190Z,99242.03
2022-12-14T06:47:10.766Z,99238.63
2022-12-14T06:49:40.349Z,99242.91
2022-12-14T06:52:09.961Z,99242.91
2022-12-14T06:54:42.115Z,99248.03
2022-12-14T06:57:11.761Z,99245.47
2022-12-14T06:59:41.298Z,99235.16
2022-12-14T07:02:11.745Z,99235.13
2022-12-14T07:04:41.362Z,99237.72
2022-12-14T07:07:11.012Z,99240.28
2022-12-14T07:09:43.932Z,99239.44
2022-12-14T07:12:13.630Z,99231.72
2022-12-14T07:14:43.166Z,99230.78
2022-12-14T07:17:12.803Z,99234.25
2022-12-14T07:19:42.368Z,99236.81
2022-12-14T07:22:12.232Z,99235.94
2022-12-14T07:24:44.478Z,99238.50
2022-12-14T07:27:14.185Z,99236.78
2022-12-14T07:29:44.829Z,99238.47
2022-12-14T07:32:14.467Z,99236.75
2022-12-14T07:34:44.105Z,99245.31
2022-12-14T07:37:13.777Z,99242.72
2022-12-14T07:39:46.000Z,99235.03
2022-12-14T07:42:15.830Z,99241.03
2022-12-14T07:44:49.910Z,99241.03
2022-12-14T07:47:19.527Z,99242.72
2022-12-14T07:49:49.114Z,99245.28
2022-12-14T07:52:18.760Z,99242.72
2022-12-14T07:54:51.315Z,99239.28
2022-12-14T07:57:20.910Z,99239.28
2022-12-14T07:59:55.758Z,99240.13
2022-12-14T08:02:27.201Z,99246.13
2022-12-14T08:04:56.913Z,99249.56
2022-12-14T08:07:26.620Z,99248.66
2022-12-14T08:09:58.836Z,99255.53
2022-12-14T08:12:28.479Z,99250.34
2022-12-14T08:14:58.240Z,99254.63
2022-12-14T08:17:27.847Z,99258.09
2022-12-14T08:19:57.495Z,99261.47
2022-12-14T08:22:27.103Z,99262.34
2022-12-14T08:24:59.481Z,99261.44
2022-12-14T08:27:29.047Z,99257.19
2022-12-14T08:29:58.615Z,99260.59
2022-12-14T08:32:33.917Z,99258.03
2022-12-14T08:35:03.982Z,99265.72
2022-12-14T08:37:33.626Z,99260.53
2022-12-14T08:40:06.200Z,99262.25
2022-12-14T08:42:35.871Z,99263.91
2022-12-14T08:45:05.483Z,99263.06
2022-12-14T08:47:35.078Z,99262.16
2022-12-14T08:50:04.677Z,99259.59
2022-12-14T08:52:34.731Z,99259.56
2022-12-14T08:55:07.829Z,99267.28
2022-12-14T08:57:37.520Z,99264.66
2022-12-14T09:00:08.852Z,99266.38
2022-12-14T09:02:38.753Z,99264.59
2022-12-14T09:05:09.947Z,99269.75
2022-12-14T09:07:39.643Z,99262.75
2022-12-14T09:10:12.673Z,99262.78
2022-12-14T09:12:42.400Z,99259.34
2022-12-14T09:15:12.683Z,99265.31
2022-12-14T09:17:42.377Z,99256.72
2022-12-14T09:20:13.679Z,99267.88
2022-12-14T09:22:43.433Z,99260.97
2022-12-14T09:25:15.707Z,99257.50
2022-12-14T09:27:45.299Z,99262.59
2022-12-14T09:30:15.228Z,99272.84
2022-12-14T09:32:46.527Z,99269.38
2022-12-14T09:35:20.470Z,99269.34
2022-12-14T09:37:50.080Z,99274.47
2022-12-14T09:40:23.232Z,99277.88
2022-12-14T09:42:58.346Z,99283.84
2022-12-14T09:45:31.077Z,99277.81
2022-12-14T09:48:05.107Z,99280.31
2022-12-14T09:50:35.001Z,99277.66
2022-12-14T09:53:05.629Z,99273.34
2022-12-14T09:55:39.603Z,99266.44
2022-12-14T09:58:14.931Z,99262.97
2022-12-14T10:00:53.413Z,99263.84
2022-12-14T10:03:44.264Z,99267.25
2022-12-14T10:06:36.464Z,99274.94
2022-12-14T10:09:13.597Z,99268.06
2022-12-14T10:11:52.295Z,99270.66
2022-12-14T10:14:26.279Z,99264.63
2022-12-14T10:17:02.189Z,99259.47
2022-12-14T10:19:39.411Z,99262.88
2022-12-14T10:22:14.301Z,99255.13
2022-12-14T10:24:46.480Z,99255.09
2022-12-14T10:27:24.413Z,99255.94
2022-12-14T10:30:04.116Z,99258.47
2022-12-14T10:32:37.529Z,99256.78
2022-12-14T10:35:17.690Z,99258.47
2022-12-14T10:37:48.773Z,99263.53
2022-12-14T10:40:32.962Z,99261.84
2022-12-14T10:43:23.208Z,99271.22
2022-12-14T10:45:57.472Z,99266.84
2022-12-14T10:48:40.623Z,99266.72
2022-12-14T10:51:12.264Z,99260.66
2022-12-14T10:53:47.784Z,99263.19
2022-12-14T10:56:20.974Z,99253.66
2022-12-14T10:59:27.525Z,99248.44
2022-12-14T11:02:02.738Z,99238.91
2022-12-14T11:04:35.765Z,99237.97
2022-12-14T11:07:08.036Z,99237.91
2022-12-14T11:09:38.422Z,99236.09
2022-12-14T11:12:10.932Z,99235.19
2022-12-14T11:14:54.732Z,99229.97
2022-12-14T11:17:34.161Z,99225.56
2022-12-14T11:20:12.358Z,99226.38
2022-12-14T11:22:46.627Z,99223.72
2022-12-14T11:25:38.111Z,99222.75
2022-12-14T11:28:19.160Z,99223.50
2022-12-14T11:31:00.973Z,99220.84
2022-12-14T11:33:36.169Z,99222.41
2022-12-14T11:36:06.317Z,99220.66
2022-12-14T11:38:36.424Z,99226.34
2022-12-14T11:41:11.457Z,99224.72
2022-12-14T11:43:41.966Z,99228.97
2022-12-14T11:46:14.334Z,99218.53
2022-12-14T11:48:50.421Z,99221.06
2022-12-14T11:51:20.129Z,99221.84
2022-12-14T11:54:04.366Z,99226.03
2022-12-14T11:56:34.275Z,99222.53
2022-12-14T11:59:04.014Z,99223.25
2022-12-14T12:01:36.359Z,99220.72
2022-12-14T12:04:06.611Z,99220.66
2022-12-14T12:06:36.460Z,99235.28
2022-12-14T12:09:26.170Z,99242.09
2022-12-14T12:11:55.859Z,99230.84
2022-12-14T12:14:30.429Z,99235.09
2022-12-14T12:17:02.680Z,99231.63
2022-12-14T12:19:35.956Z,99239.31
2022-12-14T12:22:06.283Z,99240.97
2022-12-14T12:25:00.967Z,99247.81
2022-12-14T12:27:30.022Z,99230.44
2022-12-14T12:30:07.069Z,99238.91
2022-12-14T12:32:42.813Z,99231.97
2022-12-14T12:35:18.903Z,99232.75
2022-12-14T12:37:51.851Z,99217.09
2022-12-14T12:40:25.872Z,99213.59
2022-12-14T12:42:59.090Z,99217.81
2022-12-14T12:45:31.463Z,99226.31
2022-12-14T12:48:08.861Z,99223.56
2022-12-14T12:50:40.097Z,99225.16
2022-12-14T12:53:14.855Z,99221.53
2022-12-14T12:55:46.011Z,99227.53
2022-12-14T12:58:22.049Z,99224.84
2022-12-14T13:00:55.467Z,99223.91
2022-12-14T13:03:32.413Z,99229.88
2022-12-14T13:06:11.139Z,99229.81
2022-12-14T13:08:42.353Z,99237.63
2022-12-14T13:11:26.277Z,99241.88
2022-12-14T13:13:59.651Z,99238.31
2022-12-14T13:16:33.253Z,99245.91
2022-12-14T13:19:48.068Z,99244.19
2022-12-14T13:22:05.904Z,99242.50
2022-12-14T13:24:37.027Z,99243.38
2022-12-14T13:27:32.620Z,99245.88
2022-12-14T13:30:14.001Z,99240.66
2022-12-14T13:32:57.120Z,99245.75
2022-12-14T13:35:42.205Z,99250.03
2022-12-14T13:38:33.562Z,99244.81
2022-12-14T13:41:12.408Z,99246.56
2022-12-14T13:43:54.679Z,99242.13
2022-12-14T13:46:26.879Z,99244.69
2022-12-14T13:48:58.843Z,99246.44
2022-12-14T13:51:34.156Z,99243.88
2022-12-14T13:54:05.435Z,99245.53
2022-12-14T13:56:37.895Z,99245.47
2022-12-14T13:59:09.260Z,99241.94
2022-12-14T14:02:00.075Z,99242.81
2022-12-14T14:04:30.934Z,99248.06
2022-12-14T14:07:38.741Z,99253.31
2022-12-14T14:10:09.492Z,99248.88
2022-12-14T14:12:46.755Z,99254.03
2022-12-14T14:15:35.184Z,99258.22
2022-12-14T14:18:15.147Z,99252.09
2022-12-14T14:20:47.223Z,99253.78
2022-12-14T14:23:38.482Z,99255.53
2022-12-14T14:26:22.455Z,99260.69
2022-12-14T14:29:22.567Z,99258.91
2022-12-14T14:31:54.783Z,99257.28
2022-12-14T14:34:37.414Z,99263.50
2022-12-14T14:37:17.617Z,99262.84
2022-12-14T14:40:07.187Z,99269.91
2022-12-14T14:42:52.164Z,99269.19
2022-12-14T14:45:40.577Z,99270.16
2022-12-14T14:48:21.295Z,99265.13
2022-12-14T14:50:52.376Z,99275.63
2022-12-14T14:53:33.483Z,99274.88
2022-12-14T14:56:40.193Z,99275.03
2022-12-14T14:59:51.156Z,99280.34
2022-12-14T15:02:32.816Z,99277.91
2022-12-14T15:05:40.314Z,99281.47
2022-12-14T15:07:52.233Z,99291.91
2022-12-14T15:10:29.690Z,99300.69
2022-12-14T15:13:04.841Z,99307.78
2022-12-14T15:15:39.299Z,99307.91
2022-12-14T15:18:25.263Z,99317.53
2022-12-14T15:21:01.073Z,99312.47
2022-12-14T15:23:36.039Z,99309.97
2022-12-14T15:26:11.534Z,99309.22
2022-12-14T15:28:49.952Z,99315.41
2022-12-14T15:31:19.617Z,99318.06
2022-12-14T15:33:49.582Z,99324.22
2022-12-14T15:36:20.298Z,99324.34
2022-12-14T15:38:57.882Z,99322.75
2022-12-14T15:41:29.054Z,99327.94
2022-12-14T15:44:01.443Z,99328.94
2022-12-14T15:46:33.433Z,99341.97
